Ship Status Report: callsign BATFR22

sailwx.info

Track history (hours):
 
Tides and Currents Weather Stations Pressure Air Temp Water Temp Dewpoint Dewpoint Depression Visibility Wind Speed Wind Dir Waves Ship Positions

Callsign BATFR22 (name unknown)

Last reported at 2017-May-27 04:00 UTC. Time now 2017-May-27 06:20 UTC.
Position N 41°42' E 008°36'.

Wind from 110 at 9 knots

Barometer 1017.8 mb
Water temperature 20.0 ° C

Date/timePositionNaut miles runAvg speedWind from/ knotsBaromVisibWave heightAir tempDewpointWater temp
2017-May-27 04:00N 41°42' E 008°36'2221.5 110 / 91017.8 20.0
2017-May-27 03:00N 41°54' E 008°12'1514.7 150 / 51017.7 20.0
2017-May-27 02:00N 42°00' E 007°54'2121.5 070 / 21017.7 20.0
2017-May-27 01:00N 42°12' E 007°30'1514.6 140 / 21017.6 19.5
2017-May-27 00:00N 42°18' E 007°12'1817.9 090 / 41017.4 19.7
2017-May-26 23:00N 42°30' E 006°54'1514.6 110 / 81017.4 19.4
2017-May-26 22:00N 42°36' E 006°36'1514.5 120 / 61017.3 18.9
2017-May-26 21:00N 42°42' E 006°18'1817.8 140 / 91017.2 19.0
2017-May-26 20:00N 42°54' E 006°00'1918.6 140 / 111016.7 19.0
2017-May-26 19:00N 43°00' E 005°36'22 1.6 150 / 151016.3 18.9
2017-May-26 05:00N 43°18' E 005°18'1312.8 120 / 31016.4 18.5
2017-May-26 04:00N 43°06' E 005°24'1918.5 340 / 61016.2 17.9
2017-May-26 03:00N 43°00' E 005°48'1817.8 080 / 81016.0 17.9
2017-May-26 02:00N 42°48' E 006°06'2121.3 070 / 91016.1 18.7
2017-May-26 01:00N 42°36' E 006°30'1918.7 080 / 101015.9 18.4
2017-May-26 00:00N 42°30' E 006°54'1817.9 060 / 121015.7 18.4
2017-May-25 23:00N 42°18' E 007°12'1514.6 060 / 71015.8 18.9
2017-May-25 22:00N 42°12' E 007°30'1918.8 060 / 51015.4 18.9
2017-May-25 21:00N 42°06' E 007°54'1818.0 060 / 41015.1 19.4
2017-May-25 20:00N 41°54' E 008°12'1514.7 130 / 31014.6 20.4
2017-May-25 19:00N 41°48' E 008°30'1514.7 010 / 51014.2 20.4
2017-May-25 18:00N 41°42' E 008°48'4 2.2 290 / 71013.8 20.0
2017-May-25 16:00N 41°42' E 008°54'1515.0 330 / 21014.9 20.7
2017-May-25 15:00N 41°30' E 008°42'2020.1 250 / 61014.8 20.0
2017-May-25 14:00N 41°12' E 008°30'1918.6 060 / 91015.2 20.4
2017-May-25 13:00N 40°54' E 008°24'8 1.9 040 / 151015.3 20.0
2017-May-25 09:00N 41°00' E 008°30'1918.6 250 / 181015.4 19.2
2017-May-25 08:00N 41°18' E 008°36'1918.6 250 / 151015.6 19.0
2017-May-25 07:00N 41°36' E 008°42'7 2.5 240 / 81015.6 19.4
2017-May-25 04:00N 41°42' E 008°48'1514.7 080 / 91015.0 19.2
2017-May-25 03:00N 41°48' E 008°30'1514.7 170 / 101015.1 19.5
2017-May-25 02:00N 41°54' E 008°12'2121.5 200 / 121015.1 19.4
2017-May-25 01:00N 42°06' E 007°48'1918.8 190 / 121015.6 18.7
2017-May-25 00:00N 42°12' E 007°24'2121.4 200 / 131015.7 18.7
2017-May-24 23:00N 42°24' E 007°00'2121.4 200 / 81016.5 18.4
2017-May-24 22:00N 42°36' E 006°36'2121.3 220 / 101016.8 18.7
2017-May-24 21:00N 42°48' E 006°12'1918.6 220 / 161016.8 19.2
2017-May-24 20:00N 42°54' E 005°48'2121.3 220 / 81016.3 18.5
2017-May-24 19:00N 43°06' E 005°24'1312.8 220 / 41016.1 18.2
2017-May-24 18:00N 43°18' E 005°18'6 0.5 320 / 21016.7 18.7
2017-May-24 05:00N 43°24' E 005°18'1918.5 030 / 41018.1 17.2
2017-May-24 04:00N 43°06' E 005°24'1414.5 110 / 31018.0 17.7
2017-May-24 03:00N 43°00' E 005°42'1414.5 070 / 91017.7 16.9
2017-May-24 02:00N 42°54' E 006°00'1817.8 080 / 81017.7 18.2
2017-May-24 01:00N 42°42' E 006°18'1514.5 160 / 41017.9 18.2
2017-May-24 00:00N 42°36' E 006°36'2121.4 210 / 71018.4 18.0
2017-May-23 23:00N 42°24' E 007°00'1514.6 190 / 81018.8 17.7
2017-May-23 22:00N 42°18' E 007°18'1514.6 220 / 81018.9 18.4
2017-May-23 21:00N 42°12' E 007°36'1818.0 290 / 61019.4 18.7
2017-May-23 20:00N 42°00' E 007°54'1918.8 310 / 61019.0 19.4
2017-May-23 19:00N 41°54' E 008°18'1818.0 330 / 91018.4 19.4
2017-May-23 18:00N 41°42' E 008°36'1313.4 330 / 131018.0 19.2
2017-May-23 17:00N 41°42' E 008°54'9 0.7 1017.9 20.2
2017-May-23 04:00N 41°42' E 008°42'1514.7 140 / 41018.0 19.0
2017-May-23 03:00N 41°48' E 008°24'2221.5 010 / 21017.7 18.4
2017-May-23 02:00N 42°00' E 008°00'1110.7 230 / 11017.8 18.7
2017-May-23 01:00N 42°06' E 007°48'2121.5 220 / 51017.9 18.4
2017-May-23 00:00N 42°18' E 007°24'1918.7 220 / 61018.0 17.9
2017-May-22 23:00N 42°24' E 007°00'2121.4 260 / 71018.0 17.7
2017-May-22 22:00N 42°36' E 006°36'1514.5 270 / 91018.2 17.7
2017-May-22 21:00N 42°42' E 006°18'2121.3 270 / 91018.5 17.9
2017-May-22 20:00N 42°54' E 005°54'2121.3 280 / 91018.3 16.9
2017-May-22 19:00N 43°06' E 005°30'1514.8 260 / 91018.2 17.4
2017-May-22 18:00N 43°18' E 005°18'0 0.0 240 / 121017.6 17.2
2017-May-21 05:00N 43°18' E 005°18'1312.8 010 / 171019.1 15.5
2017-May-21 04:00N 43°06' E 005°24'1414.5 320 / 221018.3 15.7
2017-May-21 03:00N 43°00' E 005°42'1414.5 320 / 261018.2 15.2
2017-May-21 02:00N 42°54' E 006°00'1817.8 320 / 251018.3 15.9
2017-May-21 01:00N 42°42' E 006°18'1514.5 310 / 241018.2 16.7
2017-May-21 00:00N 42°36' E 006°36'1514.6 310 / 251018.4 16.2
2017-May-20 23:00N 42°30' E 006°54'1817.9 300 / 251018.4 16.2
2017-May-20 22:00N 42°18' E 007°12'1514.6 300 / 251018.1 16.7
2017-May-20 21:00N 42°12' E 007°30'1514.6 290 / 241018.2 16.7
2017-May-20 20:00N 42°06' E 007°48'2121.5 300 / 271018.4 17.4
2017-May-20 19:00N 41°54' E 008°12'1514.7 310 / 181019.3 17.9
2017-May-20 18:00N 41°48' E 008°30'1918.9 320 / 141020.1 18.2
2017-May-20 17:00N 41°42' E 008°54'13 1.0 290 / 181019.8 19.0
2017-May-20 04:00N 41°42' E 008°36'1818.0 330 / 111018.3 17.4
2017-May-20 03:00N 41°54' E 008°18'1918.8 290 / 221017.9 18.2
2017-May-20 02:00N 42°00' E 007°54'1818.0 280 / 231017.9 17.7
2017-May-20 01:00N 42°12' E 007°36'1918.8 290 / 261017.5 17.2
2017-May-20 00:00N 42°18' E 007°12'1817.9 280 / 281017.4 17.0
2017-May-19 23:00N 42°30' E 006°54'1918.7 280 / 301017.5 16.4
2017-May-19 22:00N 42°36' E 006°30'1817.9 280 / 331017.4 16.7
2017-May-19 21:00N 42°48' E 006°12'1918.6 280 / 301017.7 16.9
2017-May-19 20:00N 42°54' E 005°48'2121.3 280 / 251017.7 16.7
2017-May-19 19:00N 43°06' E 005°24'13 0.9 280 / 231017.7 17.2
2017-May-19 05:00N 43°18' E 005°18'1514.8 330 / 201014.7 17.5
2017-May-19 04:00N 43°06' E 005°30'1817.8 310 / 281013.5 16.9
2017-May-19 03:00N 42°54' E 005°48'1414.5 310 / 351013.0 17.4
2017-May-19 02:00N 42°48' E 006°06'1514.5 300 / 311012.7 18.4
2017-May-19 01:00N 42°42' E 006°24'2121.4 320 / 241012.8 18.9
2017-May-19 00:00N 42°30' E 006°48'1514.6 300 / 151013.1 19.2
2017-May-18 23:00N 42°24' E 007°06'2121.4 360 / 41013.1 19.0
2017-May-18 22:00N 42°12' E 007°30'2121.5 350 / 91013.0 18.9
2017-May-18 21:00N 42°00' E 007°54'1514.7 360 / 81013.6 19.7
2017-May-18 20:00N 41°54' E 008°12'2221.5 340 / 91013.9 19.9
2017-May-18 19:00N 41°42' E 008°36'11 3.6 340 / 131013.1 18.7
2017-May-18 16:00N 41°36' E 008°48'1515.0 330 / 151013.4 18.7
2017-May-18 15:00N 41°24' E 008°36'1918.6 080 / 201013.1 18.7
2017-May-18 14:00N 41°06' E 008°30'1312.8 050 / 171013.8 19.2
2017-May-18 13:00N 40°54' E 008°24'6 1.5 030 / 131014.2 19.5
2017-May-18 09:00N 41°00' E 008°24'2020.1 090 / 81014.9 19.0
2017-May-18 08:00N 41°18' E 008°36'1312.8 100 / 121015.2 18.9
2017-May-18 07:00N 41°30' E 008°42'13 4.3 200 / 51015.3 18.2
2017-May-18 04:00N 41°42' E 008°48'1514.7 080 / 81015.8 18.7
2017-May-18 03:00N 41°48' E 008°30'1918.9 140 / 101016.0 18.9
2017-May-18 02:00N 41°54' E 008°06'1818.0 140 / 61016.1 18.9
2017-May-18 01:00N 42°06' E 007°48'1514.6 140 / 81016.2 18.9
2017-May-18 00:00N 42°12' E 007°30'2121.4 120 / 61016.7 18.2
2017-May-17 23:00N 42°24' E 007°06'1514.6 100 / 41017.3 18.9
2017-May-17 22:00N 42°30' E 006°48'2121.4 220 / 11017.8 19.4
2017-May-17 21:00N 42°42' E 006°24'1514.5 220 / 21018.2 19.2
2017-May-17 20:00N 42°48' E 006°06'1817.8 170 / 31018.3 18.9
2017-May-17 19:00N 43°00' E 005°48'1918.5 050 / 61018.1 19.0
2017-May-17 18:00N 43°06' E 005°24'1312.8 120 / 101018.4 18.2
2017-May-17 17:00N 43°18' E 005°18'0 0.0 250 / 101019.0 18.2
2017-May-17 05:00N 43°18' E 005°18'1312.8 110 / 31023.0 17.4
2017-May-17 04:00N 43°06' E 005°24'   030 / 21022.9 17.4
Track history (hours):
 
Tides and Currents Weather Stations Pressure Air Temp Water Temp Dewpoint Dewpoint Depression Visibility Wind Speed Wind Dir Waves Ship Positions

Callsign BATFR22 (name unknown)

Last reported at 2017-May-27 04:00 UTC. Time now 2017-May-27 06:20 UTC.
Position N 41°42' E 008°36'.

Wind from 110 at 9 knots

Barometer 1017.8 mb
Water temperature 20.0 ° C

Date/timePositionNaut miles runAvg speedWind from/ knotsBaromVisibWave heightAir tempDewpointWater temp
2017-May-27 04:00N 41°42' E 008°36'2221.5 110 / 91017.8 20.0
2017-May-27 03:00N 41°54' E 008°12'1514.7 150 / 51017.7 20.0
2017-May-27 02:00N 42°00' E 007°54'2121.5 070 / 21017.7 20.0
2017-May-27 01:00N 42°12' E 007°30'1514.6 140 / 21017.6 19.5
2017-May-27 00:00N 42°18' E 007°12'1817.9 090 / 41017.4 19.7
2017-May-26 23:00N 42°30' E 006°54'1514.6 110 / 81017.4 19.4
2017-May-26 22:00N 42°36' E 006°36'1514.5 120 / 61017.3 18.9
2017-May-26 21:00N 42°42' E 006°18'1817.8 140 / 91017.2 19.0
2017-May-26 20:00N 42°54' E 006°00'1918.6 140 / 111016.7 19.0
2017-May-26 19:00N 43°00' E 005°36'22 1.6 150 / 151016.3 18.9
2017-May-26 05:00N 43°18' E 005°18'1312.8 120 / 31016.4 18.5
2017-May-26 04:00N 43°06' E 005°24'1918.5 340 / 61016.2 17.9
2017-May-26 03:00N 43°00' E 005°48'1817.8 080 / 81016.0 17.9
2017-May-26 02:00N 42°48' E 006°06'2121.3 070 / 91016.1 18.7
2017-May-26 01:00N 42°36' E 006°30'1918.7 080 / 101015.9 18.4
2017-May-26 00:00N 42°30' E 006°54'1817.9 060 / 121015.7 18.4
2017-May-25 23:00N 42°18' E 007°12'1514.6 060 / 71015.8 18.9
2017-May-25 22:00N 42°12' E 007°30'1918.8 060 / 51015.4 18.9
2017-May-25 21:00N 42°06' E 007°54'1818.0 060 / 41015.1 19.4
2017-May-25 20:00N 41°54' E 008°12'1514.7 130 / 31014.6 20.4
2017-May-25 19:00N 41°48' E 008°30'1514.7 010 / 51014.2 20.4
2017-May-25 18:00N 41°42' E 008°48'4 2.2 290 / 71013.8 20.0
2017-May-25 16:00N 41°42' E 008°54'1515.0 330 / 21014.9 20.7
2017-May-25 15:00N 41°30' E 008°42'2020.1 250 / 61014.8 20.0
2017-May-25 14:00N 41°12' E 008°30'1918.6 060 / 91015.2 20.4
2017-May-25 13:00N 40°54' E 008°24'8 1.9 040 / 151015.3 20.0
2017-May-25 09:00N 41°00' E 008°30'1918.6 250 / 181015.4 19.2
2017-May-25 08:00N 41°18' E 008°36'1918.6 250 / 151015.6 19.0
2017-May-25 07:00N 41°36' E 008°42'7 2.5 240 / 81015.6 19.4
2017-May-25 04:00N 41°42' E 008°48'1514.7 080 / 91015.0 19.2
2017-May-25 03:00N 41°48' E 008°30'1514.7 170 / 101015.1 19.5
2017-May-25 02:00N 41°54' E 008°12'2121.5 200 / 121015.1 19.4
2017-May-25 01:00N 42°06' E 007°48'1918.8 190 / 121015.6 18.7
2017-May-25 00:00N 42°12' E 007°24'2121.4 200 / 131015.7 18.7
2017-May-24 23:00N 42°24' E 007°00'2121.4 200 / 81016.5 18.4
2017-May-24 22:00N 42°36' E 006°36'2121.3 220 / 101016.8 18.7
2017-May-24 21:00N 42°48' E 006°12'1918.6 220 / 161016.8 19.2
2017-May-24 20:00N 42°54' E 005°48'2121.3 220 / 81016.3 18.5
2017-May-24 19:00N 43°06' E 005°24'1312.8 220 / 41016.1 18.2
2017-May-24 18:00N 43°18' E 005°18'6 0.5 320 / 21016.7 18.7
2017-May-24 05:00N 43°24' E 005°18'1918.5 030 / 41018.1 17.2
2017-May-24 04:00N 43°06' E 005°24'1414.5 110 / 31018.0 17.7
2017-May-24 03:00N 43°00' E 005°42'1414.5 070 / 91017.7 16.9
2017-May-24 02:00N 42°54' E 006°00'1817.8 080 / 81017.7 18.2
2017-May-24 01:00N 42°42' E 006°18'1514.5 160 / 41017.9 18.2
2017-May-24 00:00N 42°36' E 006°36'2121.4 210 / 71018.4 18.0
2017-May-23 23:00N 42°24' E 007°00'1514.6 190 / 81018.8 17.7
2017-May-23 22:00N 42°18' E 007°18'1514.6 220 / 81018.9 18.4
2017-May-23 21:00N 42°12' E 007°36'1818.0 290 / 61019.4 18.7
2017-May-23 20:00N 42°00' E 007°54'1918.8 310 / 61019.0 19.4
2017-May-23 19:00N 41°54' E 008°18'1818.0 330 / 91018.4 19.4
2017-May-23 18:00N 41°42' E 008°36'1313.4 330 / 131018.0 19.2
2017-May-23 17:00N 41°42' E 008°54'9 0.7 1017.9 20.2
2017-May-23 04:00N 41°42' E 008°42'1514.7 140 / 41018.0 19.0
2017-May-23 03:00N 41°48' E 008°24'2221.5 010 / 21017.7 18.4
2017-May-23 02:00N 42°00' E 008°00'1110.7 230 / 11017.8 18.7
2017-May-23 01:00N 42°06' E 007°48'2121.5 220 / 51017.9 18.4
2017-May-23 00:00N 42°18' E 007°24'1918.7 220 / 61018.0 17.9
2017-May-22 23:00N 42°24' E 007°00'2121.4 260 / 71018.0 17.7
2017-May-22 22:00N 42°36' E 006°36'1514.5 270 / 91018.2 17.7
2017-May-22 21:00N 42°42' E 006°18'2121.3 270 / 91018.5 17.9
2017-May-22 20:00N 42°54' E 005°54'2121.3 280 / 91018.3 16.9
2017-May-22 19:00N 43°06' E 005°30'1514.8 260 / 91018.2 17.4
2017-May-22 18:00N 43°18' E 005°18'0 0.0 240 / 121017.6 17.2
2017-May-21 05:00N 43°18' E 005°18'1312.8 010 / 171019.1 15.5
2017-May-21 04:00N 43°06' E 005°24'1414.5 320 / 221018.3 15.7
2017-May-21 03:00N 43°00' E 005°42'1414.5 320 / 261018.2 15.2
2017-May-21 02:00N 42°54' E 006°00'1817.8 320 / 251018.3 15.9
2017-May-21 01:00N 42°42' E 006°18'1514.5 310 / 241018.2 16.7
2017-May-21 00:00N 42°36' E 006°36'1514.6 310 / 251018.4 16.2
2017-May-20 23:00N 42°30' E 006°54'1817.9 300 / 251018.4 16.2
2017-May-20 22:00N 42°18' E 007°12'1514.6 300 / 251018.1 16.7
2017-May-20 21:00N 42°12' E 007°30'1514.6 290 / 241018.2 16.7
2017-May-20 20:00N 42°06' E 007°48'2121.5 300 / 271018.4 17.4
2017-May-20 19:00N 41°54' E 008°12'1514.7 310 / 181019.3 17.9
2017-May-20 18:00N 41°48' E 008°30'1918.9 320 / 141020.1 18.2
2017-May-20 17:00N 41°42' E 008°54'13 1.0 290 / 181019.8 19.0
2017-May-20 04:00N 41°42' E 008°36'1818.0 330 / 111018.3 17.4
2017-May-20 03:00N 41°54' E 008°18'1918.8 290 / 221017.9 18.2
2017-May-20 02:00N 42°00' E 007°54'1818.0 280 / 231017.9 17.7
2017-May-20 01:00N 42°12' E 007°36'1918.8 290 / 261017.5 17.2
2017-May-20 00:00N 42°18' E 007°12'1817.9 280 / 281017.4 17.0
2017-May-19 23:00N 42°30' E 006°54'1918.7 280 / 301017.5 16.4
2017-May-19 22:00N 42°36' E 006°30'1817.9 280 / 331017.4 16.7
2017-May-19 21:00N 42°48' E 006°12'1918.6 280 / 301017.7 16.9
2017-May-19 20:00N 42°54' E 005°48'2121.3 280 / 251017.7 16.7
2017-May-19 19:00N 43°06' E 005°24'13 0.9 280 / 231017.7 17.2
2017-May-19 05:00N 43°18' E 005°18'1514.8 330 / 201014.7 17.5
2017-May-19 04:00N 43°06' E 005°30'1817.8 310 / 281013.5 16.9
2017-May-19 03:00N 42°54' E 005°48'1414.5 310 / 351013.0 17.4
2017-May-19 02:00N 42°48' E 006°06'1514.5 300 / 311012.7 18.4
2017-May-19 01:00N 42°42' E 006°24'2121.4 320 / 241012.8 18.9
2017-May-19 00:00N 42°30' E 006°48'1514.6 300 / 151013.1 19.2
2017-May-18 23:00N 42°24' E 007°06'2121.4 360 / 41013.1 19.0
2017-May-18 22:00N 42°12' E 007°30'2121.5 350 / 91013.0 18.9
2017-May-18 21:00N 42°00' E 007°54'1514.7 360 / 81013.6 19.7
2017-May-18 20:00N 41°54' E 008°12'2221.5 340 / 91013.9 19.9
2017-May-18 19:00N 41°42' E 008°36'11 3.6 340 / 131013.1 18.7
2017-May-18 16:00N 41°36' E 008°48'1515.0 330 / 151013.4 18.7
2017-May-18 15:00N 41°24' E 008°36'1918.6 080 / 201013.1 18.7
2017-May-18 14:00N 41°06' E 008°30'1312.8 050 / 171013.8 19.2
2017-May-18 13:00N 40°54' E 008°24'6 1.5 030 / 131014.2 19.5
2017-May-18 09:00N 41°00' E 008°24'2020.1 090 / 81014.9 19.0
2017-May-18 08:00N 41°18' E 008°36'1312.8 100 / 121015.2 18.9
2017-May-18 07:00N 41°30' E 008°42'13 4.3 200 / 51015.3 18.2
2017-May-18 04:00N 41°42' E 008°48'1514.7 080 / 81015.8 18.7
2017-May-18 03:00N 41°48' E 008°30'1918.9 140 / 101016.0 18.9
2017-May-18 02:00N 41°54' E 008°06'1818.0 140 / 61016.1 18.9
2017-May-18 01:00N 42°06' E 007°48'1514.6 140 / 81016.2 18.9
2017-May-18 00:00N 42°12' E 007°30'2121.4 120 / 61016.7 18.2
2017-May-17 23:00N 42°24' E 007°06'1514.6 100 / 41017.3 18.9
2017-May-17 22:00N 42°30' E 006°48'2121.4 220 / 11017.8 19.4
2017-May-17 21:00N 42°42' E 006°24'1514.5 220 / 21018.2 19.2
2017-May-17 20:00N 42°48' E 006°06'1817.8 170 / 31018.3 18.9
2017-May-17 19:00N 43°00' E 005°48'1918.5 050 / 61018.1 19.0
2017-May-17 18:00N 43°06' E 005°24'1312.8 120 / 101018.4 18.2
2017-May-17 17:00N 43°18' E 005°18'0 0.0 250 / 101019.0 18.2
2017-May-17 05:00N 43°18' E 005°18'1312.8 110 / 31023.0 17.4
2017-May-17 04:00N 43°06' E 005°24'   030 / 21022.9 17.4

Dump ship's entire track history